sensor_id;sensor_type;location;lat;lon;timestamp;pressure;altitude;pressure_sealevel;temperature;humidity
11487;BME280;10510;47.942;9.442;2023-04-09T00:01:31;95131.75;;;1.22;100.00
11487;BME280;10510;47.942;9.442;2023-04-09T00:03:32;95131.03;;;1.20;100.00
11487;BME280;10510;47.942;9.442;2023-04-09T00:05:32;95136.56;;;1.16;100.00
11487;BME280;10510;47.942;9.442;2023-04-09T00:07:33;95128.34;;;1.10;100.00
11487;BME280;10510;47.942;9.442;2023-04-09T00:09:33;95133.72;;;1.07;100.00
11487;BME280;10510;47.942;9.442;2023-04-09T00:11:33;95129.75;;;1.03;100.00
11487;BME280;10510;47.942;9.442;2023-04-09T00:13:34;95131.84;;;0.98;100.00
11487;BME280;10510;47.942;9.442;2023-04-09T00:15:34;95127.00;;;0.94;100.00
11487;BME280;10510;47.942;9.442;2023-04-09T00:17:35;95123.75;;;0.92;100.00
11487;BME280;10510;47.942;9.442;2023-04-09T00:19:35;95117.88;;;0.89;100.00
11487;BME280;10510;47.942;9.442;2023-04-09T00:21:36;95121.63;;;0.85;100.00
11487;BME280;10510;47.942;9.442;2023-04-09T00:23:36;95120.91;;;0.83;100.00
11487;BME280;10510;47.942;9.442;2023-04-09T00:25:36;95121.13;;;0.80;100.00
11487;BME280;10510;47.942;9.442;2023-04-09T00:27:37;95122.28;;;0.76;100.00
11487;BME280;10510;47.942;9.442;2023-04-09T00:29:37;95116.53;;;0.73;100.00
11487;BME280;10510;47.942;9.442;2023-04-09T00:31:37;95122.94;;;0.67;100.00
11487;BME280;10510;47.942;9.442;2023-04-09T00:33:37;95121.25;;;0.55;100.00
11487;BME280;10510;47.942;9.442;2023-04-09T00:35:38;95115.25;;;0.43;100.00
11487;BME280;10510;47.942;9.442;2023-04-09T00:37:38;95115.78;;;0.35;100.00
11487;BME280;10510;47.942;9.442;2023-04-09T00:39:38;95110.97;;;0.31;100.00
11487;BME280;10510;47.942;9.442;2023-04-09T00:41:38;95119.00;;;0.26;100.00
11487;BME280;10510;47.942;9.442;2023-04-09T00:43:39;95114.09;;;0.23;100.00
11487;BME280;10510;47.942;9.442;2023-04-09T00:45:39;95119.56;;;0.18;100.00
11487;BME280;10510;47.942;9.442;2023-04-09T00:47:40;95121.72;;;0.12;100.00
11487;BME280;10510;47.942;9.442;2023-04-09T00:49:42;95116.22;;;0.05;100.00
11487;BME280;10510;47.942;9.442;2023-04-09T00:51:45;95107.19;;;-0.01;100.00
11487;BME280;10510;47.942;9.442;2023-04-09T00:53:46;95113.34;;;-0.03;100.00
11487;BME280;10510;47.942;9.442;2023-04-09T00:55:47;95119.34;;;-0.03;100.00
11487;BME280;10510;47.942;9.442;2023-04-09T00:57:47;95115.81;;;-0.02;100.00
11487;BME280;10510;47.942;9.442;2023-04-09T00:59:47;95117.69;;;-0.04;100.00
11487;BME280;10510;47.942;9.442;2023-04-09T01:01:47;95116.03;;;-0.05;100.00
11487;BME280;10510;47.942;9.442;2023-04-09T01:03:48;95115.22;;;-0.05;100.00
11487;BME280;10510;47.942;9.442;2023-04-09T01:05:59;95119.63;;;-0.07;100.00
11487;BME280;10510;47.942;9.442;2023-04-09T01:08:15;95108.53;;;-0.08;100.00
11487;BME280;10510;47.942;9.442;2023-04-09T01:12:38;95109.56;;;-0.10;100.00
11487;BME280;10510;47.942;9.442;2023-04-09T01:15:10;95118.44;;;-0.14;100.00
11487;BME280;10510;47.942;9.442;2023-04-09T01:17:15;95115.97;;;-0.16;100.00
11487;BME280;10510;47.942;9.442;2023-04-09T01:21:39;95119.56;;;-0.18;100.00
11487;BME280;10510;47.942;9.442;2023-04-09T01:26:03;95117.22;;;-0.21;100.00
11487;BME280;10510;47.942;9.442;2023-04-09T01:28:21;95120.81;;;-0.24;100.00
11487;BME280;10510;47.942;9.442;2023-04-09T01:30:23;95109.09;;;-0.28;100.00
11487;BME280;10510;47.942;9.442;2023-04-09T01:32:25;95114.47;;;-0.31;100.00
11487;BME280;10510;47.942;9.442;2023-04-09T01:34:26;95108.59;;;-0.33;100.00
11487;BME280;10510;47.942;9.442;2023-04-09T01:36:29;95113.34;;;-0.40;100.00
11487;BME280;10510;47.942;9.442;2023-04-09T01:38:31;95117.25;;;-0.47;100.00
11487;BME280;10510;47.942;9.442;2023-04-09T01:40:32;95117.78;;;-0.55;100.00
11487;BME280;10510;47.942;9.442;2023-04-09T01:42:34;95115.72;;;-0.62;100.00
11487;BME280;10510;47.942;9.442;2023-04-09T01:44:38;95116.75;;;-0.65;100.00
11487;BME280;10510;47.942;9.442;2023-04-09T01:46:39;95118.50;;;-0.65;100.00
11487;BME280;10510;47.942;9.442;2023-04-09T01:48:40;95116.13;;;-0.69;100.00
11487;BME280;10510;47.942;9.442;2023-04-09T01:50:42;95115.63;;;-0.74;100.00
11487;BME280;10510;47.942;9.442;2023-04-09T01:52:42;95110.81;;;-0.78;100.00
11487;BME280;10510;47.942;9.442;2023-04-09T01:54:43;95115.22;;;-0.80;100.00
11487;BME280;10510;47.942;9.442;2023-04-09T01:56:44;95116.16;;;-0.81;100.00
11487;BME280;10510;47.942;9.442;2023-04-09T01:58:45;95112.75;;;-0.82;100.00
11487;BME280;10510;47.942;9.442;2023-04-09T02:00:47;95112.03;;;-0.84;100.00
11487;BME280;10510;47.942;9.442;2023-04-09T02:03:10;95114.00;;;-0.87;100.00
11487;BME280;10510;47.942;9.442;2023-04-09T02:05:14;95108.94;;;-0.89;100.00
11487;BME280;10510;47.942;9.442;2023-04-09T02:07:25;95122.72;;;-0.90;100.00
11487;BME280;10510;47.942;9.442;2023-04-09T02:09:31;95114.28;;;-0.92;100.00
11487;BME280;10510;47.942;9.442;2023-04-09T02:11:33;95116.97;;;-0.94;100.00
11487;BME280;10510;47.942;9.442;2023-04-09T02:13:37;95114.59;;;-0.97;100.00
11487;BME280;10510;47.942;9.442;2023-04-09T02:15:40;95118.88;;;-0.97;100.00
11487;BME280;10510;47.942;9.442;2023-04-09T02:17:41;95120.84;;;-1.01;100.00
11487;BME280;10510;47.942;9.442;2023-04-09T02:19:45;95113.25;;;-1.02;100.00
11487;BME280;10510;47.942;9.442;2023-04-09T02:21:46;95117.47;;;-1.01;100.00
11487;BME280;10510;47.942;9.442;2023-04-09T02:23:46;95119.22;;;-1.02;100.00
11487;BME280;10510;47.942;9.442;2023-04-09T02:25:46;95115.91;;;-1.04;100.00
11487;BME280;10510;47.942;9.442;2023-04-09T02:27:46;95118.88;;;-1.10;100.00
11487;BME280;10510;47.942;9.442;2023-04-09T02:29:47;95112.22;;;-1.12;100.00
11487;BME280;10510;47.942;9.442;2023-04-09T02:31:47;95113.97;;;-1.13;100.00
11487;BME280;10510;47.942;9.442;2023-04-09T02:33:49;95109.75;;;-1.14;100.00
11487;BME280;10510;47.942;9.442;2023-04-09T02:35:49;95108.94;;;-1.15;100.00
11487;BME280;10510;47.942;9.442;2023-04-09T02:37:50;95102.97;;;-1.15;100.00
11487;BME280;10510;47.942;9.442;2023-04-09T02:39:50;95102.97;;;-1.15;100.00
11487;BME280;10510;47.942;9.442;2023-04-09T02:41:51;95114.88;;;-1.14;100.00
11487;BME280;10510;47.942;9.442;2023-04-09T02:43:51;95108.09;;;-1.15;100.00
11487;BME280;10510;47.942;9.442;2023-04-09T02:45:51;95108.09;;;-1.15;100.00
11487;BME280;10510;47.942;9.442;2023-04-09T02:47:51;95111.59;;;-1.16;100.00
11487;BME280;10510;47.942;9.442;2023-04-09T02:49:52;95105.66;;;-1.17;100.00
11487;BME280;10510;47.942;9.442;2023-04-09T02:51:52;95109.16;;;-1.18;100.00
11487;BME280;10510;47.942;9.442;2023-04-09T02:53:52;95113.44;;;-1.18;100.00
11487;BME280;10510;47.942;9.442;2023-04-09T02:55:52;95116.00;;;-1.18;100.00
11487;BME280;10510;47.942;9.442;2023-04-09T02:57:53;95111.78;;;-1.19;100.00
11487;BME280;10510;47.942;9.442;2023-04-09T02:59:54;95111.78;;;-1.19;100.00
11487;BME280;10510;47.942;9.442;2023-04-09T03:01:54;95108.31;;;-1.18;100.00
11487;BME280;10510;47.942;9.442;2023-04-09T03:03:55;95114.38;;;-1.19;100.00
11487;BME280;10510;47.942;9.442;2023-04-09T03:05:55;95110.38;;;-1.23;100.00
11487;BME280;10510;47.942;9.442;2023-04-09T03:07:55;95109.63;;;-1.25;100.00
11487;BME280;10510;47.942;9.442;2023-04-09T03:09:56;95113.22;;;-1.28;100.00
11487;BME280;10510;47.942;9.442;2023-04-09T03:11:56;95111.97;;;-1.35;100.00
11487;BME280;10510;47.942;9.442;2023-04-09T03:13:56;95103.16;;;-1.44;100.00
11487;BME280;10510;47.942;9.442;2023-04-09T03:15:57;95107.75;;;-1.49;100.00
11487;BME280;10510;47.942;9.442;2023-04-09T03:17:57;95105.56;;;-1.55;100.00
11487;BME280;10510;47.942;9.442;2023-04-09T03:19:58;95098.91;;;-1.57;100.00
11487;BME280;10510;47.942;9.442;2023-04-09T03:21:58;95094.97;;;-1.63;100.00
11487;BME280;10510;47.942;9.442;2023-04-09T03:23:58;95097.75;;;-1.66;100.00
11487;BME280;10510;47.942;9.442;2023-04-09T03:26:02;95096.09;;;-1.67;100.00
11487;BME280;10510;47.942;9.442;2023-04-09T03:28:03;95099.56;;;-1.68;100.00
11487;BME280;10510;47.942;9.442;2023-04-09T03:30:03;95095.38;;;-1.69;100.00
11487;BME280;10510;47.942;9.442;2023-04-09T03:32:04;95095.56;;;-1.72;100.00
11487;BME280;10510;47.942;9.442;2023-04-09T03:34:04;95095.84;;;-1.77;100.00
11487;BME280;10510;47.942;9.442;2023-04-09T03:36:04;95098.72;;;-1.81;100.00
11487;BME280;10510;47.942;9.442;2023-04-09T03:38:05;95095.63;;;-1.87;100.00
11487;BME280;10510;47.942;9.442;2023-04-09T03:40:06;95094.00;;;-1.88;100.00
11487;BME280;10510;47.942;9.442;2023-04-09T03:42:06;95097.38;;;-1.87;100.00
11487;BME280;10510;47.942;9.442;2023-04-09T03:44:06;95099.94;;;-1.87;100.00
11487;BME280;10510;47.942;9.442;2023-04-09T03:46:14;95096.53;;;-1.88;100.00
11487;BME280;10510;47.942;9.442;2023-04-09T03:48:14;95100.00;;;-1.89;100.00
11487;BME280;10510;47.942;9.442;2023-04-09T03:50:15;95099.31;;;-1.91;100.00
11487;BME280;10510;47.942;9.442;2023-04-09T03:52:15;95096.81;;;-1.92;100.00
11487;BME280;10510;47.942;9.442;2023-04-09T03:54:15;95094.25;;;-1.92;100.00
11487;BME280;10510;47.942;9.442;2023-04-09T03:56:15;95100.94;;;-1.90;100.00
11487;BME280;10510;47.942;9.442;2023-04-09T03:58:16;95094.00;;;-1.88;100.00
11487;BME280;10510;47.942;9.442;2023-04-09T04:00:16;95100.66;;;-1.85;100.00
11487;BME280;10510;47.942;9.442;2023-04-09T04:02:16;95092.59;;;-1.79;100.00
11487;BME280;10510;47.942;9.442;2023-04-09T04:04:17;95096.50;;;-1.73;100.00
11487;BME280;10510;47.942;9.442;2023-04-09T04:06:17;95104.63;;;-1.67;100.00
11487;BME280;10510;47.942;9.442;2023-04-09T04:08:17;95105.16;;;-1.62;100.00
11487;BME280;10510;47.942;9.442;2023-04-09T04:10:17;95096.34;;;-1.57;100.00
11487;BME280;10510;47.942;9.442;2023-04-09T04:12:18;95097.69;;;-1.52;100.00
11487;BME280;10510;47.942;9.442;2023-04-09T04:14:18;95096.34;;;-1.45;100.00
11487;BME280;10510;47.942;9.442;2023-04-09T04:16:18;95095.94;;;-1.39;100.00
11487;BME280;10510;47.942;9.442;2023-04-09T04:18:19;95094.66;;;-1.31;100.00
11487;BME280;10510;47.942;9.442;2023-04-09T04:20:19;95100.91;;;-1.23;100.00
11487;BME280;10510;47.942;9.442;2023-04-09T04:22:20;95104.63;;;-1.14;100.00
11487;BME280;10510;47.942;9.442;2023-04-09T04:24:20;95100.00;;;-1.09;100.00
11487;BME280;10510;47.942;9.442;2023-04-09T04:26:20;95103.00;;;-1.02;100.00
11487;BME280;10510;47.942;9.442;2023-04-09T04:28:20;95107.59;;;-0.95;100.00
11487;BME280;10510;47.942;9.442;2023-04-09T04:30:21;95101.03;;;-0.86;100.00
11487;BME280;10510;47.942;9.442;2023-04-09T04:32:21;95104.84;;;-0.79;100.00
11487;BME280;10510;47.942;9.442;2023-04-09T04:34:21;95107.72;;;-0.71;100.00
11487;BME280;10510;47.942;9.442;2023-04-09T04:36:22;95108.94;;;-0.63;100.00
11487;BME280;10510;47.942;9.442;2023-04-09T04:38:22;95113.78;;;-0.59;100.00
11487;BME280;10510;47.942;9.442;2023-04-09T04:40:22;95103.19;;;-0.54;100.00
11487;BME280;10510;47.942;9.442;2023-04-09T04:42:23;95118.09;;;-0.47;100.00
11487;BME280;10510;47.942;9.442;2023-04-09T04:44:23;95117.53;;;-0.39;100.00
11487;BME280;10510;47.942;9.442;2023-04-09T04:46:23;95117.97;;;-0.32;100.00
11487;BME280;10510;47.942;9.442;2023-04-09T04:48:24;95120.81;;;-0.24;100.00
11487;BME280;10510;47.942;9.442;2023-04-09T04:50:24;95110.81;;;-0.16;100.00
11487;BME280;10510;47.942;9.442;2023-04-09T04:52:24;95110.19;;;-0.07;100.00
11487;BME280;10510;47.942;9.442;2023-04-09T04:54:25;95114.88;;;-0.01;100.00
11487;BME280;10510;47.942;9.442;2023-04-09T04:56:25;95108.41;;;0.07;100.00
11487;BME280;10510;47.942;9.442;2023-04-09T04:58:25;95108.88;;;0.12;100.00
11487;BME280;10510;47.942;9.442;2023-04-09T05:00:25;95106.72;;;0.18;100.00
11487;BME280;10510;47.942;9.442;2023-04-09T05:02:26;95109.97;;;0.20;100.00
11487;BME280;10510;47.942;9.442;2023-04-09T05:04:26;95114.09;;;0.23;100.00
11487;BME280;10510;47.942;9.442;2023-04-09T05:06:26;95114.72;;;0.27;100.00
11487;BME280;10510;47.942;9.442;2023-04-09T05:08:27;95114.38;;;0.31;100.00
11487;BME280;10510;47.942;9.442;2023-04-09T05:10:27;95115.69;;;0.37;100.00
11487;BME280;10510;47.942;9.442;2023-04-09T05:12:30;95116.28;;;0.40;100.00
11487;BME280;10510;47.942;9.442;2023-04-09T05:14:31;95120.16;;;0.46;100.00
11487;BME280;10510;47.942;9.442;2023-04-09T05:16:31;95117.28;;;0.51;100.00
11487;BME280;10510;47.942;9.442;2023-04-09T05:18:31;95124.56;;;0.57;100.00
11487;BME280;10510;47.942;9.442;2023-04-09T05:20:33;95124.22;;;0.61;100.00
11487;BME280;10510;47.942;9.442;2023-04-09T05:22:33;95120.38;;;0.67;100.00
11487;BME280;10510;47.942;9.442;2023-04-09T05:24:35;95118.28;;;0.72;100.00
11487;BME280;10510;47.942;9.442;2023-04-09T05:26:35;95119.59;;;0.78;100.00
11487;BME280;10510;47.942;9.442;2023-04-09T05:28:35;95125.34;;;0.81;100.00
11487;BME280;10510;47.942;9.442;2023-04-09T05:30:36;95126.78;;;0.85;100.00
11487;BME280;10510;47.942;9.442;2023-04-09T05:32:36;95128.19;;;0.89;100.00
11487;BME280;10510;47.942;9.442;2023-04-09T05:34:36;95118.47;;;0.93;100.00
11487;BME280;10510;47.942;9.442;2023-04-09T05:36:37;95125.97;;;0.96;100.00
11487;BME280;10510;47.942;9.442;2023-04-09T05:38:37;95131.59;;;1.01;100.00
11487;BME280;10510;47.942;9.442;2023-04-09T05:40:37;95131.25;;;1.06;100.00
11487;BME280;10510;47.942;9.442;2023-04-09T05:42:37;95129.88;;;1.13;100.00
11487;BME280;10510;47.942;9.442;2023-04-09T05:44:38;95126.13;;;1.17;100.00
11487;BME280;10510;47.942;9.442;2023-04-09T05:46:38;95131.75;;;1.22;100.00
11487;BME280;10510;47.942;9.442;2023-04-09T05:48:38;95126.16;;;1.28;100.00
11487;BME280;10510;47.942;9.442;2023-04-09T05:50:39;95129.09;;;1.35;100.00
11487;BME280;10510;47.942;9.442;2023-04-09T05:52:39;95131.09;;;1.43;100.00
11487;BME280;10510;47.942;9.442;2023-04-09T05:54:39;95134.03;;;1.49;100.00
11487;BME280;10510;47.942;9.442;2023-04-09T05:56:41;95125.97;;;1.54;100.00
11487;BME280;10510;47.942;9.442;2023-04-09T05:58:42;95122.34;;;1.56;100.00
11487;BME280;10510;47.942;9.442;2023-04-09T06:00:42;95123.72;;;1.61;100.00
11487;BME280;10510;47.942;9.442;2023-04-09T06:02:43;95132.75;;;1.66;100.00
11487;BME280;10510;47.942;9.442;2023-04-09T06:04:43;95125.38;;;1.73;100.00
11487;BME280;10510;47.942;9.442;2023-04-09T06:06:44;95125.25;;;1.74;100.00
11487;BME280;10510;47.942;9.442;2023-04-09T06:08:44;95123.25;;;1.78;100.00
11487;BME280;10510;47.942;9.442;2023-04-09T06:10:45;95128.06;;;1.83;100.00
11487;BME280;10510;47.942;9.442;2023-04-09T06:12:45;95123.38;;;1.88;100.00
11487;BME280;10510;47.942;9.442;2023-04-09T06:14:47;95119.63;;;1.92;100.00
11487;BME280;10510;47.942;9.442;2023-04-09T06:16:47;95119.25;;;1.96;100.00
11487;BME280;10510;47.942;9.442;2023-04-09T06:18:47;95123.25;;;2.00;100.00
11487;BME280;10510;47.942;9.442;2023-04-09T06:20:49;95124.53;;;2.06;100.00
11487;BME280;10510;47.942;9.442;2023-04-09T06:22:50;95124.06;;;2.12;100.00
11487;BME280;10510;47.942;9.442;2023-04-09T06:24:50;95121.91;;;2.17;100.00
11487;BME280;10510;47.942;9.442;2023-04-09T06:26:50;95117.13;;;2.24;100.00
11487;BME280;10510;47.942;9.442;2023-04-09T06:28:51;95119.31;;;2.28;100.00
11487;BME280;10510;47.942;9.442;2023-04-09T06:30:51;95114.63;;;2.34;100.00
11487;BME280;10510;47.942;9.442;2023-04-09T06:32:53;95122.81;;;2.39;100.00
11487;BME280;10510;47.942;9.442;2023-04-09T06:34:53;95120.56;;;2.45;100.00
11487;BME280;10510;47.942;9.442;2023-04-09T06:36:54;95130.66;;;2.48;100.00
11487;BME280;10510;47.942;9.442;2023-04-09T06:38:55;95124.19;;;2.54;100.00
11487;BME280;10510;47.942;9.442;2023-04-09T06:40:55;95125.56;;;2.58;100.00
11487;BME280;10510;47.942;9.442;2023-04-09T06:42:56;95125.31;;;2.61;100.00
11487;BME280;10510;47.942;9.442;2023-04-09T06:44:56;95119.66;;;2.67;100.00
11487;BME280;10510;47.942;9.442;2023-04-09T06:46:57;95122.44;;;2.76;100.00
11487;BME280;10510;47.942;9.442;2023-04-09T06:48:57;95120.88;;;2.84;100.00
11487;BME280;10510;47.942;9.442;2023-04-09T06:50:57;95123.53;;;2.94;100.00
11487;BME280;10510;47.942;9.442;2023-04-09T06:52:57;95126.47;;;3.01;100.00
11487;BME280;10510;47.942;9.442;2023-04-09T06:54:58;95131.72;;;2.99;100.00
11487;BME280;10510;47.942;9.442;2023-04-09T06:56:58;95129.72;;;3.03;100.00
11487;BME280;10510;47.942;9.442;2023-04-09T06:58:58;95134.50;;;3.07;100.00
11487;BME280;10510;47.942;9.442;2023-04-09T07:00:59;95140.25;;;3.11;100.00
11487;BME280;10510;47.942;9.442;2023-04-09T07:02:59;95134.72;;;3.15;100.00
11487;BME280;10510;47.942;9.442;2023-04-09T07:05:00;95137.34;;;3.25;100.00
11487;BME280;10510;47.942;9.442;2023-04-09T07:07:00;95134.78;;;3.25;100.00
11487;BME280;10510;47.942;9.442;2023-04-09T07:09:01;95138.34;;;3.34;100.00
11487;BME280;10510;47.942;9.442;2023-04-09T07:11:01;95126.28;;;3.44;100.00
11487;BME280;10510;47.942;9.442;2023-04-09T07:13:02;95129.63;;;3.56;100.00
11487;BME280;10510;47.942;9.442;2023-04-09T07:15:04;95128.22;;;3.73;100.00
11487;BME280;10510;47.942;9.442;2023-04-09T07:17:05;95133.66;;;4.00;100.00
11487;BME280;10510;47.942;9.442;2023-04-09T07:19:05;95125.38;;;4.16;100.00
11487;BME280;10510;47.942;9.442;2023-04-09T07:21:06;95125.72;;;4.42;100.00
11487;BME280;10510;47.942;9.442;2023-04-09T07:23:06;95127.22;;;4.64;100.00
11487;BME280;10510;47.942;9.442;2023-04-09T07:25:07;95131.47;;;4.65;100.00
11487;BME280;10510;47.942;9.442;2023-04-09T07:27:07;95128.75;;;4.67;100.00
11487;BME280;10510;47.942;9.442;2023-04-09T07:29:08;95129.16;;;4.72;100.00
11487;BME280;10510;47.942;9.442;2023-04-09T07:31:09;95127.25;;;4.74;100.00
11487;BME280;10510;47.942;9.442;2023-04-09T07:33:09;95133.38;;;4.73;100.00
11487;BME280;10510;47.942;9.442;2023-04-09T07:35:10;95138.00;;;4.79;100.00
11487;BME280;10510;47.942;9.442;2023-04-09T07:37:10;95126.28;;;5.04;100.00
11487;BME280;10510;47.942;9.442;2023-04-09T07:39:11;95127.75;;;5.26;100.00
11487;BME280;10510;47.942;9.442;2023-04-09T07:41:11;95134.16;;;5.51;100.00
11487;BME280;10510;47.942;9.442;2023-04-09T07:43:12;95120.28;;;5.80;100.00
11487;BME280;10510;47.942;9.442;2023-04-09T07:45:12;95128.88;;;6.18;100.00
11487;BME280;10510;47.942;9.442;2023-04-09T07:47:12;95125.78;;;6.59;100.00
11487;BME280;10510;47.942;9.442;2023-04-09T07:49:13;95122.38;;;6.95;100.00
11487;BME280;10510;47.942;9.442;2023-04-09T07:51:13;95127.41;;;7.14;100.00
11487;BME280;10510;47.942;9.442;2023-04-09T07:53:14;95130.28;;;7.29;100.00
11487;BME280;10510;47.942;9.442;2023-04-09T07:55:14;95140.13;;;7.43;100.00
11487;BME280;10510;47.942;9.442;2023-04-09T07:57:15;95131.16;;;7.38;100.00
11487;BME280;10510;47.942;9.442;2023-04-09T07:59:16;95131.81;;;7.40;100.00
11487;BME280;10510;47.942;9.442;2023-04-09T08:01:16;95132.03;;;7.46;100.00
11487;BME280;10510;47.942;9.442;2023-04-09T08:03:16;95134.13;;;7.43;100.00
11487;BME280;10510;47.942;9.442;2023-04-09T08:05:17;95137.91;;;7.48;100.00
11487;BME280;10510;47.942;9.442;2023-04-09T08:07:18;95137.59;;;7.51;100.00
11487;BME280;10510;47.942;9.442;2023-04-09T08:09:21;95132.28;;;7.61;100.00
11487;BME280;10510;47.942;9.442;2023-04-09T08:11:21;95132.41;;;7.78;100.00
11487;BME280;10510;47.942;9.442;2023-04-09T08:13:24;95133.56;;;7.83;100.00
11487;BME280;10510;47.942;9.442;2023-04-09T08:15:24;95133.47;;;7.93;100.00
11487;BME280;10510;47.942;9.442;2023-04-09T08:17:25;95134.25;;;7.85;100.00
11487;BME280;10510;47.942;9.442;2023-04-09T08:19:26;95135.13;;;8.36;100.00
11487;BME280;10510;47.942;9.442;2023-04-09T08:21:26;95143.25;;;8.33;100.00
11487;BME280;10510;47.942;9.442;2023-04-09T08:23:26;95145.38;;;8.38;100.00
11487;BME280;10510;47.942;9.442;2023-04-09T08:25:28;95147.97;;;8.30;100.00
11487;BME280;10510;47.942;9.442;2023-04-09T08:27:29;95155.22;;;8.18;100.00
11487;BME280;10510;47.942;9.442;2023-04-09T08:29:29;95157.56;;;8.37;100.00
11487;BME280;10510;47.942;9.442;2023-04-09T08:31:31;95151.31;;;8.48;100.00
11487;BME280;10510;47.942;9.442;2023-04-09T08:33:31;95154.97;;;8.72;100.00
11487;BME280;10510;47.942;9.442;2023-04-09T08:35:31;95154.78;;;8.65;100.00
11487;BME280;10510;47.942;9.442;2023-04-09T08:37:32;95153.66;;;8.76;100.00
11487;BME280;10510;47.942;9.442;2023-04-09T08:39:32;95153.34;;;8.79;100.00
11487;BME280;10510;47.942;9.442;2023-04-09T08:41:33;95155.16;;;9.03;100.00
11487;BME280;10510;47.942;9.442;2023-04-09T08:43:37;95147.38;;;9.19;100.00
11487;BME280;10510;47.942;9.442;2023-04-09T08:45:39;95150.94;;;9.02;100.00
11487;BME280;10510;47.942;9.442;2023-04-09T08:47:40;95156.47;;;8.91;100.00
11487;BME280;10510;47.942;9.442;2023-04-09T08:49:41;95164.78;;;8.86;100.00
11487;BME280;10510;47.942;9.442;2023-04-09T08:51:45;95163.28;;;8.83;100.00
11487;BME280;10510;47.942;9.442;2023-04-09T08:53:46;95172.56;;;8.78;100.00
11487;BME280;10510;47.942;9.442;2023-04-09T08:55:47;95165.66;;;8.60;100.00
11487;BME280;10510;47.942;9.442;2023-04-09T08:57:47;95166.94;;;8.48;100.00
11487;BME280;10510;47.942;9.442;2023-04-09T08:59:47;95176.28;;;8.33;100.00
11487;BME280;10510;47.942;9.442;2023-04-09T09:01:48;95172.16;;;8.22;100.00
11487;BME280;10510;47.942;9.442;2023-04-09T09:04:07;95183.50;;;8.13;100.00
11487;BME280;10510;47.942;9.442;2023-04-09T09:06:20;95173.06;;;8.05;100.00
11487;BME280;10510;47.942;9.442;2023-04-09T09:08:25;95178.38;;;7.95;100.00
11487;BME280;10510;47.942;9.442;2023-04-09T09:10:39;95172.34;;;7.94;100.00
11487;BME280;10510;47.942;9.442;2023-04-09T09:12:40;95182.09;;;7.92;100.00
11487;BME280;10510;47.942;9.442;2023-04-09T09:14:42;95178.75;;;8.08;100.00
11487;BME280;10510;47.942;9.442;2023-04-09T09:18:55;95177.34;;;9.07;100.00
11487;BME280;10510;47.942;9.442;2023-04-09T09:21:17;95173.91;;;8.98;100.00
11487;BME280;10510;47.942;9.442;2023-04-09T09:23:33;95179.44;;;8.87;100.00
11487;BME280;10510;47.942;9.442;2023-04-09T09:25:41;95169.69;;;9.05;100.00
11487;BME280;10510;47.942;9.442;2023-04-09T09:27:41;95180.28;;;9.04;100.00
11487;BME280;10510;47.942;9.442;2023-04-09T09:29:42;95169.69;;;9.05;100.00
11487;BME280;10510;47.942;9.442;2023-04-09T09:31:48;95177.19;;;9.08;100.00
11487;BME280;10510;47.942;9.442;2023-04-09T09:33:49;95175.59;;;9.65;100.00
11487;BME280;10510;47.942;9.442;2023-04-09T09:35:52;95174.41;;;9.84;100.00
11487;BME280;10510;47.942;9.442;2023-04-09T09:38:03;95166.03;;;10.13;100.00
11487;BME280;10510;47.942;9.442;2023-04-09T09:40:04;95171.22;;;10.29;100.00
11487;BME280;10510;47.942;9.442;2023-04-09T09:42:07;95164.63;;;10.89;100.00
11487;BME280;10510;47.942;9.442;2023-04-09T09:44:08;95166.97;;;11.30;100.00
11487;BME280;10510;47.942;9.442;2023-04-09T09:46:10;95175.31;;;11.71;100.00
11487;BME280;10510;47.942;9.442;2023-04-09T09:48:11;95174.69;;;12.07;100.00
11487;BME280;10510;47.942;9.442;2023-04-09T09:50:14;95181.53;;;12.38;100.00
11487;BME280;10510;47.942;9.442;2023-04-09T09:52:15;95171.88;;;12.68;100.00
11487;BME280;10510;47.942;9.442;2023-04-09T09:54:17;95173.94;;;12.72;100.00
11487;BME280;10510;47.942;9.442;2023-04-09T09:56:22;95168.00;;;13.00;100.00
11487;BME280;10510;47.942;9.442;2023-04-09T09:58:27;95175.63;;;12.95;100.00
11487;BME280;10510;47.942;9.442;2023-04-09T10:00:31;95173.06;;;12.50;100.00
11487;BME280;10510;47.942;9.442;2023-04-09T10:02:37;95178.28;;;12.65;100.00
11487;BME280;10510;47.942;9.442;2023-04-09T10:04:39;95168.84;;;12.86;100.00
11487;BME280;10510;47.942;9.442;2023-04-09T10:06:44;95172.78;;;12.45;100.00
11487;BME280;10510;47.942;9.442;2023-04-09T10:08:47;95161.72;;;12.80;100.00
11487;BME280;10510;47.942;9.442;2023-04-09T10:10:50;95168.41;;;13.18;100.00
11487;BME280;10510;47.942;9.442;2023-04-09T10:12:51;95163.25;;;13.47;100.00
11487;BME280;10510;47.942;9.442;2023-04-09T10:14:51;95163.84;;;13.70;100.00
11487;BME280;10510;47.942;9.442;2023-04-09T10:16:52;95159.75;;;13.89;100.00
11487;BME280;10510;47.942;9.442;2023-04-09T10:18:54;95157.66;;;13.78;100.00
11487;BME280;10510;47.942;9.442;2023-04-09T10:21:02;95164.53;;;13.79;100.00
11487;BME280;10510;47.942;9.442;2023-04-09T10:23:09;95157.38;;;13.94;100.00
11487;BME280;10510;47.942;9.442;2023-04-09T10:25:14;95158.38;;;13.93;100.00
11487;BME280;10510;47.942;9.442;2023-04-09T10:27:15;95155.06;;;14.13;100.00
11487;BME280;10510;47.942;9.442;2023-04-09T10:29:16;95160.06;;;14.36;100.00
11487;BME280;10510;47.942;9.442;2023-04-09T10:31:19;95152.84;;;14.44;100.00
11487;BME280;10510;47.942;9.442;2023-04-09T10:33:25;95156.97;;;14.60;100.00
11487;BME280;10510;47.942;9.442;2023-04-09T10:35:26;95152.88;;;14.99;100.00
11487;BME280;10510;47.942;9.442;2023-04-09T10:37:27;95159.00;;;14.58;100.00
11487;BME280;10510;47.942;9.442;2023-04-09T10:39:30;95150.97;;;14.38;100.00
11487;BME280;10510;47.942;9.442;2023-04-09T10:41:32;95158.41;;;14.28;100.00
11487;BME280;10510;47.942;9.442;2023-04-09T10:43:34;95157.09;;;14.45;100.00
11487;BME280;10510;47.942;9.442;2023-04-09T10:45:39;95150.13;;;14.66;100.00
11487;BME280;10510;47.942;9.442;2023-04-09T10:47:42;95146.22;;;14.55;100.00
11487;BME280;10510;47.942;9.442;2023-04-09T10:49:42;95140.09;;;14.41;100.00